Time;durP1;ratioP1;P1;durP2;ratioP2;P2;SDS_P1;SDS_P2;PMS_P1;PMS_P2;Temp;Humidity;BMP_temperature;BMP_pressure;BME280_temperature;BME280_humidity;BME280_pressure;Samples;Min_cycle;Max_cycle;Signal;HPM_P1;HPM_P2
2021/09/12 00:00:05;;;;;;;4.10;3.80;;;;;;;19.06;76.29;95870.59;5054778;28;20551;-84
2021/09/12 00:02:36;;;;;;;4.35;3.95;;;;;;;19.02;76.64;95865.03;5054470;28;20198;-85
2021/09/12 00:05:08;;;;;;;4.70;4.30;;;;;;;19.00;76.99;95863.66;5053896;28;20213;-84
2021/09/12 00:07:42;;;;;;;4.53;4.20;;;;;;;19.04;76.93;95859.59;5057898;28;20217;-85
2021/09/12 00:10:15;;;;;;;4.70;4.13;;;;;;;18.94;77.51;95866.13;5074506;28;20224;-84
2021/09/12 00:12:45;;;;;;;4.72;3.90;;;;;;;18.89;77.92;95865.19;5074872;28;20192;-86
2021/09/12 00:15:16;;;;;;;5.25;4.68;;;;;;;18.91;77.79;95857.94;5075020;28;20229;-84
2021/09/12 00:17:46;;;;;;;4.55;4.25;;;;;;;18.87;78.03;95854.97;5074858;28;20205;-86
2021/09/12 00:20:13;;;;;;;4.10;3.78;;;;;;;18.86;78.31;95847.38;5074592;28;20197;-86
2021/09/12 00:22:39;;;;;;;4.63;4.22;;;;;;;18.91;78.17;95853.53;5074163;28;20209;-84
2021/09/12 00:25:08;;;;;;;4.60;4.30;;;;;;;18.93;77.96;95846.28;5074883;28;20246;-82
2021/09/12 00:27:35;;;;;;;6.90;4.40;;;;;;;18.93;77.95;95841.06;5074556;28;20261;-85
2021/09/12 00:30:02;;;;;;;4.57;4.18;;;;;;;18.97;77.46;95844.81;5074717;28;20201;-85
2021/09/12 00:32:38;;;;;;;4.57;4.18;;;;;;;18.97;77.56;95844.03;5075024;28;20200;-84
2021/09/12 00:35:13;;;;;;;4.28;3.97;;;;;;;19.01;77.38;95837.34;5074858;28;20311;-86
2021/09/12 00:37:39;;;;;;;4.00;3.70;;;;;;;19.02;76.98;95845.97;5072503;28;20201;-83
2021/09/12 00:40:10;;;;;;;4.10;3.80;;;;;;;18.96;77.24;95843.22;5074735;28;20201;-84
2021/09/12 00:42:37;;;;;;;4.47;4.07;;;;;;;18.81;78.09;95849.88;5074758;28;20204;-85
2021/09/12 00:45:07;;;;;;;4.60;4.20;;;;;;;18.84;77.76;95852.03;5073512;28;20224;-83
2021/09/12 00:47:33;;;;;;;4.32;4.03;;;;;;;18.84;77.64;95852.03;5076941;28;20207;-82
2021/09/12 00:50:03;;;;;;;4.75;4.32;;;;;;;18.83;77.74;95853.06;5077655;28;20204;-85
2021/09/12 00:52:34;;;;;;;4.30;3.95;;;;;;;18.80;77.47;95854.28;5078460;28;20196;-83
2021/09/12 00:55:02;;;;;;;5.15;3.80;;;;;;;18.77;77.68;95854.72;5078225;28;20224;-86
2021/09/12 00:57:28;;;;;;;4.43;4.13;;;;;;;18.67;78.45;95849.22;5066868;28;20225;-85
2021/09/12 00:59:55;;;;;;;4.80;4.40;;;;;;;18.62;79.03;95854.34;5077034;28;20659;-85
2021/09/12 01:02:22;;;;;;;4.38;4.03;;;;;;;18.57;79.52;95854.16;5077486;28;20208;-83
2021/09/12 01:04:48;;;;;;;4.25;3.85;;;;;;;18.66;78.92;95847.66;5076745;28;20221;-83
2021/09/12 01:07:15;;;;;;;4.88;4.47;;;;;;;18.70;79.07;95850.59;5076619;28;20200;-85
2021/09/12 01:09:44;;;;;;;4.50;4.10;;;;;;;18.63;79.18;95858.53;5076962;28;20204;-83
2021/09/12 01:12:11;;;;;;;5.20;4.38;;;;;;;18.57;79.51;95851.53;5097151;28;20262;-83
2021/09/12 01:14:39;;;;;;;4.45;4.05;;;;;;;18.59;79.84;95855.56;5096740;28;20230;-84
2021/09/12 01:17:16;;;;;;;4.45;4.05;;;;;;;18.65;79.35;95845.28;5097035;28;20216;-83
2021/09/12 01:19:43;;;;;;;4.35;3.95;;;;;;;18.67;78.71;95843.22;5097084;28;20210;-83
2021/09/12 01:22:12;;;;;;;4.55;4.10;;;;;;;18.65;78.65;95843.47;5097179;28;20207;-84
2021/09/12 01:24:42;;;;;;;5.00;4.60;;;;;;;18.66;79.40;95845.06;5096944;28;20231;-85
2021/09/12 01:27:12;;;;;;;4.75;4.35;;;;;;;18.67;79.20;95836.19;5096392;28;20200;-83
2021/09/12 01:29:50;;;;;;;4.90;4.50;;;;;;;18.57;79.12;95830.69;5096450;28;20674;-83
2021/09/12 01:32:17;;;;;;;4.80;4.40;;;;;;;18.45;79.88;95841.06;5097553;28;20276;-85
2021/09/12 01:34:44;;;;;;;5.07;4.57;;;;;;;18.44;80.64;95833.47;5097032;28;20306;-84
2021/09/12 01:37:13;;;;;;;4.90;4.50;;;;;;;18.47;80.40;95835.63;5096818;28;20219;-84
2021/09/12 01:39:42;;;;;;;5.20;4.50;;;;;;;18.39;80.54;95831.50;5097527;28;20226;-85
2021/09/12 01:42:13;;;;;;;4.78;4.43;;;;;;;18.37;80.56;95832.72;5096094;28;20197;-82
2021/09/12 01:44:47;;;;;;;5.60;4.50;;;;;;;18.38;80.25;95831.72;5096925;28;20220;-85
2021/09/12 01:47:14;;;;;;;4.90;4.43;;;;;;;18.39;80.91;95831.50;5096470;28;20598;-84
2021/09/12 01:49:41;;;;;;;4.88;4.47;;;;;;;18.40;80.62;95827.09;5093606;28;20211;-84
2021/09/12 01:52:15;;;;;;;4.88;4.47;;;;;;;18.42;80.10;95832.88;5095901;28;20195;-85
2021/09/12 01:54:47;;;;;;;6.03;5.53;;;;;;;18.44;80.19;95829.03;5096278;28;20216;-84
2021/09/12 01:57:13;;;;;;;5.53;5.07;;;;;;;18.41;79.90;95820.84;5096448;28;20224;-84
2021/09/12 01:59:40;;;;;;;5.47;4.97;;;;;;;18.35;80.00;95822.53;5094933;28;20203;-85
2021/09/12 02:02:08;;;;;;;6.63;4.55;;;;;;;18.28;80.30;95824.41;5096705;28;20200;-85
2021/09/12 02:04:39;;;;;;;4.32;4.00;;;;;;;18.35;79.88;95826.94;5096037;28;20216;-83
2021/09/12 02:07:05;;;;;;;4.75;4.45;;;;;;;18.40;79.54;95820.06;5096592;28;20255;-83
2021/09/12 02:09:32;;;;;;;5.00;4.60;;;;;;;18.37;79.55;95832.72;5096710;28;20200;-84
2021/09/12 02:12:01;;;;;;;6.68;4.63;;;;;;;18.38;79.24;95826.50;5076610;28;20714;-83
2021/09/12 02:14:27;;;;;;;4.97;4.57;;;;;;;18.37;78.94;95819.69;5075812;28;20220;-82
2021/09/12 02:16:54;;;;;;;5.10;4.70;;;;;;;18.15;79.77;95820.16;5076265;28;20841;-85
2021/09/12 02:19:22;;;;;;;4.93;4.53;;;;;;;18.07;80.46;95815.25;5076012;28;20205;-84
2021/09/12 02:21:50;;;;;;;5.05;4.28;;;;;;;18.12;80.32;95817.16;5075350;28;20679;-83
2021/09/12 02:24:24;;;;;;;5.25;4.85;;;;;;;18.16;80.52;95820.94;5074689;28;20225;-84
2021/09/12 02:27:04;;;;;;;5.13;4.72;;;;;;;18.15;80.28;95817.53;5074772;28;20235;-84
2021/09/12 02:29:47;;;;;;;5.18;4.70;;;;;;;18.17;80.31;95823.34;5075432;28;20297;-84
2021/09/12 02:32:14;;;;;;;6.07;4.60;;;;;;;18.17;80.64;95827.75;5074853;28;20299;-84
2021/09/12 02:34:45;;;;;;;4.40;4.10;;;;;;;18.24;80.50;95836.31;5074111;28;20216;-83
2021/09/12 02:37:12;;;;;;;4.55;4.20;;;;;;;18.32;80.12;95835.19;5074601;28;20227;-84
2021/09/12 02:39:41;;;;;;;4.68;4.18;;;;;;;18.35;79.39;95832.16;5075430;28;20209;-83
2021/09/12 02:42:07;;;;;;;4.53;4.22;;;;;;;18.40;79.18;95834.91;5075812;28;20208;-84
2021/09/12 02:44:39;;;;;;;5.15;4.65;;;;;;;18.34;79.54;95830.56;5074920;28;20220;-85
2021/09/12 02:47:08;;;;;;;4.50;4.20;;;;;;;18.36;79.25;95836.34;5075557;28;20196;-85
2021/09/12 02:49:39;;;;;;;4.50;4.20;;;;;;;18.38;79.55;95837.72;5075804;28;20197;-85
2021/09/12 02:52:07;;;;;;;4.60;4.20;;;;;;;18.30;79.40;95841.41;5076177;28;20193;-84
2021/09/12 02:54:40;;;;;;;4.55;4.03;;;;;;;18.28;79.69;95840.84;5075228;28;20213;-83
2021/09/12 02:57:07;;;;;;;4.82;4.40;;;;;;;18.32;79.82;95838.59;5075015;28;20220;-84
2021/09/12 02:59:33;;;;;;;4.35;4.05;;;;;;;18.31;79.70;95829.19;5075498;28;20229;-85
2021/09/12 03:02:01;;;;;;;4.53;4.15;;;;;;;18.27;79.58;95828.06;5075766;28;20200;-84
2021/09/12 03:04:29;;;;;;;4.88;4.38;;;;;;;18.21;79.97;95834.91;5074712;28;20225;-83
2021/09/12 03:06:55;;;;;;;4.43;4.07;;;;;;;18.26;79.94;95829.06;5075133;28;20215;-86
2021/09/12 03:09:21;;;;;;;4.78;4.40;;;;;;;18.27;79.83;95828.84;5075365;28;20197;-84
2021/09/12 03:11:51;;;;;;;4.78;4.38;;;;;;;18.26;79.80;95827.25;5071714;28;20229;-85
2021/09/12 03:14:18;;;;;;;5.90;4.03;;;;;;;18.26;80.24;95831.66;5074659;28;20213;-85
2021/09/12 03:16:47;;;;;;;4.88;4.47;;;;;;;18.29;79.46;95836.41;5075110;28;20220;-85
2021/09/12 03:19:19;;;;;;;4.50;4.20;;;;;;;18.32;79.05;95835.19;5075213;28;20681;-84
2021/09/12 03:21:46;;;;;;;3.92;3.63;;;;;;;18.28;78.63;95837.44;5075099;28;20684;-85
2021/09/12 03:24:17;;;;;;;4.32;3.92;;;;;;;18.31;78.53;95826.56;5075092;28;20196;-83
2021/09/12 03:26:44;;;;;;;4.35;3.83;;;;;;;18.28;78.78;95829.63;5075471;28;20196;-83
2021/09/12 03:29:10;;;;;;;4.30;4.00;;;;;;;18.30;78.63;95832.81;5074787;28;20196;-85
2021/09/12 03:31:37;;;;;;;4.15;3.80;;;;;;;18.29;78.68;95829.41;5075219;28;20200;-84
2021/09/12 03:34:03;;;;;;;4.35;3.97;;;;;;;18.33;78.17;95831.56;5075033;28;20200;-85
2021/09/12 03:36:31;;;;;;;4.65;4.03;;;;;;;18.30;77.84;95819.78;5075264;28;20216;-84
2021/09/12 03:38:57;;;;;;;4.15;3.78;;;;;;;18.26;77.87;95818.63;5075215;28;20212;-85
2021/09/12 03:41:24;;;;;;;4.20;3.90;;;;;;;18.19;78.45;95816.09;5073962;28;20560;-84
2021/09/12 03:43:50;;;;;;;3.75;3.42;;;;;;;18.14;79.17;95810.72;5074483;28;20220;-84
2021/09/12 03:46:17;;;;;;;3.90;3.60;;;;;;;18.16;78.62;95813.91;5074130;28;20595;-84
2021/09/12 03:48:43;;;;;;;3.58;3.28;;;;;;;18.15;78.64;95816.75;5074316;28;20671;-83
2021/09/12 03:51:10;;;;;;;3.92;3.50;;;;;;;18.08;78.98;95819.44;5074043;28;20207;-85
2021/09/12 03:53:38;;;;;;;4.82;4.30;;;;;;;18.14;79.03;95815.16;5074156;28;20604;-85
2021/09/12 03:56:04;;;;;;;3.40;3.20;;;;;;;18.12;79.32;95817.16;5074906;28;20221;-85
2021/09/12 03:58:31;;;;;;;4.00;3.70;;;;;;;18.10;79.58;95821.81;5054307;28;20205;-83
2021/09/12 04:00:57;;;;;;;3.22;3.03;;;;;;;18.10;79.24;95820.00;5057325;28;20200;-83
2021/09/12 04:03:24;;;;;;;3.45;3.08;;;;;;;18.06;79.56;95813.66;5073482;28;20193;-85
2021/09/12 04:05:50;;;;;;;3.50;3.30;;;;;;;18.06;79.45;95811.03;5074401;28;20217;-84
2021/09/12 04:08:17;;;;;;;3.17;2.97;;;;;;;18.03;80.21;95801.03;5074322;28;20203;-83
2021/09/12 04:10:45;;;;;;;3.45;3.25;;;;;;;18.01;80.30;95805.69;5074728;28;20599;-83
2021/09/12 04:13:11;;;;;;;3.40;3.20;;;;;;;18.04;80.31;95812.25;5074728;28;20204;-85
2021/09/12 04:15:37;;;;;;;3.45;3.17;;;;;;;17.99;80.82;95814.72;5074206;28;20236;-83
2021/09/12 04:18:04;;;;;;;3.47;3.28;;;;;;;18.03;80.68;95819.28;5074494;28;20231;-83
2021/09/12 04:20:30;;;;;;;3.83;3.55;;;;;;;18.06;80.43;95815.44;5074693;28;20205;-85
2021/09/12 04:22:57;;;;;;;5.35;3.35;;;;;;;18.07;80.55;95811.84;5077305;28;20196;-83
2021/09/12 04:25:23;;;;;;;3.22;3.03;;;;;;;18.01;81.09;95812.69;5077733;28;20221;-85
2021/09/12 04:27:51;;;;;;;3.28;3.08;;;;;;;17.98;81.37;95823.53;5078515;28;20197;-84
2021/09/12 04:30:18;;;;;;;3.65;3.35;;;;;;;17.97;81.77;95816.75;5078292;28;20223;-82
2021/09/12 04:32:44;;;;;;;3.20;3.00;;;;;;;17.93;82.02;95816.38;5078786;28;20208;-83
2021/09/12 04:35:11;;;;;;;3.13;2.92;;;;;;;18.00;81.50;95821.53;5077979;28;20240;-84
2021/09/12 04:37:37;;;;;;;3.65;3.10;;;;;;;18.06;80.96;95816.25;5077795;28;20232;-85
2021/09/12 04:40:05;;;;;;;3.63;3.33;;;;;;;18.08;80.88;95816.84;5078691;28;20208;-83
2021/09/12 04:42:31;;;;;;;3.40;3.20;;;;;;;17.90;81.83;95822.81;5078261;28;20197;-83
2021/09/12 04:44:59;;;;;;;3.58;3.20;;;;;;;17.91;81.57;95821.00;5077650;28;20224;-85
2021/09/12 04:47:25;;;;;;;4.00;3.42;;;;;;;17.97;81.40;95814.13;5079222;28;20197;-84
2021/09/12 04:49:52;;;;;;;4.00;3.58;;;;;;;17.97;81.39;95819.34;5079887;28;20205;-85
2021/09/12 04:52:18;;;;;;;3.28;2.97;;;;;;;18.00;81.11;95819.72;5079124;28;20192;-83
2021/09/12 04:54:45;;;;;;;8.38;3.47;;;;;;;17.99;81.18;95818.13;5077877;28;20216;-83
2021/09/12 04:57:11;;;;;;;3.33;3.13;;;;;;;18.02;80.72;95814.28;5074169;28;20216;-85
2021/09/12 04:59:37;;;;;;;3.80;3.50;;;;;;;18.04;80.69;95814.88;5078165;28;20208;-86
2021/09/12 05:02:06;;;;;;;3.33;3.13;;;;;;;18.00;80.73;95814.50;5078278;28;20201;-84
2021/09/12 05:04:32;;;;;;;3.72;3.42;;;;;;;17.93;81.27;95809.34;5078862;28;20224;-85
2021/09/12 05:06:59;;;;;;;3.17;2.97;;;;;;;17.92;81.38;95820.00;5078252;28;20200;-83
2021/09/12 05:09:25;;;;;;;3.53;3.22;;;;;;;17.94;81.33;95821.38;5073555;28;20198;-83
2021/09/12 05:11:52;;;;;;;3.40;3.20;;;;;;;17.95;81.54;95820.34;5057217;28;20236;-84
2021/09/12 05:14:18;;;;;;;4.78;3.33;;;;;;;17.99;81.79;95814.72;5067537;28;20225;-85
2021/09/12 05:16:45;;;;;;;4.32;3.50;;;;;;;18.03;81.35;95819.28;5078461;28;20212;-83
2021/09/12 05:19:13;;;;;;;3.13;2.92;;;;;;;18.06;81.05;95818.06;5077013;28;20201;-85
2021/09/12 05:21:39;;;;;;;3.55;3.25;;;;;;;18.06;80.91;95820.66;5077994;28;20223;-83
2021/09/12 05:24:06;;;;;;;3.45;3.20;;;;;;;18.10;80.87;95822.59;5077862;28;20200;-85
2021/09/12 05:26:32;;;;;;;3.50;3.20;;;;;;;18.05;81.31;95824.28;5077962;28;20193;-85
2021/09/12 05:28:59;;;;;;;3.40;3.20;;;;;;;18.15;80.79;95824.56;5077815;28;20207;-85
2021/09/12 05:31:26;;;;;;;3.40;3.20;;;;;;;18.21;80.85;95823.69;5077988;28;20660;-82
2021/09/12 05:33:53;;;;;;;3.58;3.38;;;;;;;18.27;80.53;95822.84;5077754;28;20208;-84
2021/09/12 05:36:20;;;;;;;3.28;3.08;;;;;;;18.28;80.66;95819.19;5077426;28;20236;-85
2021/09/12 05:38:48;;;;;;;3.20;2.97;;;;;;;18.28;80.85;95830.41;5077134;28;20216;-86
2021/09/12 05:41:15;;;;;;;3.13;2.92;;;;;;;18.35;80.50;95821.72;5077649;28;20207;-87
2021/09/12 05:43:41;;;;;;;3.45;3.17;;;;;;;18.36;81.08;95823.31;5072508;28;20198;-86
2021/09/12 05:46:08;;;;;;;3.58;3.28;;;;;;;18.44;80.95;95823.03;5068094;28;20228;-87
2021/09/12 05:48:34;;;;;;;3.75;3.45;;;;;;;18.44;81.24;95829.03;5075696;28;20201;-86
2021/09/12 05:51:01;;;;;;;3.10;2.90;;;;;;;18.39;81.33;95833.31;5075411;28;20263;-85
2021/09/12 05:53:29;;;;;;;3.15;2.95;;;;;;;18.50;80.59;95824.75;5076517;28;20264;-87
2021/09/12 05:55:55;;;;;;;3.47;3.17;;;;;;;18.56;80.39;95842.13;5075378;28;20225;-87
2021/09/12 05:58:22;;;;;;;3.40;3.10;;;;;;;18.58;80.26;95840.09;5075651;28;20224;-87
2021/09/12 06:00:48;;;;;;;3.45;3.25;;;;;;;18.60;80.13;95836.28;5076214;28;20205;-87
2021/09/12 06:03:15;;;;;;;3.05;2.85;;;;;;;18.64;80.09;95831.44;5075935;28;20236;-87
2021/09/12 06:05:41;;;;;;;3.38;3.17;;;;;;;18.63;80.64;95835.06;5075005;28;20221;-86
2021/09/12 06:08:08;;;;;;;3.58;3.30;;;;;;;18.67;80.78;95830.16;5076086;28;20193;-86
2021/09/12 06:10:36;;;;;;;3.97;3.67;;;;;;;18.73;80.67;95845.75;5075083;28;20197;-87
2021/09/12 06:13:02;;;;;;;3.80;3.50;;;;;;;18.80;80.17;95832.63;5074770;28;20204;-87
2021/09/12 06:15:29;;;;;;;3.72;3.42;;;;;;;18.79;80.83;95836.25;5073980;28;20228;-86
2021/09/12 06:17:55;;;;;;;3.95;3.65;;;;;;;18.85;80.69;95833.56;5074013;28;20308;-86
2021/09/12 06:20:22;;;;;;;4.82;3.88;;;;;;;18.96;80.32;95838.00;5073059;28;20208;-86
2021/09/12 06:22:51;;;;;;;4.00;3.65;;;;;;;19.02;80.51;95835.53;5074003;28;20204;-85
2021/09/12 06:25:18;;;;;;;4.20;3.90;;;;;;;19.14;79.91;95839.75;5074062;28;20228;-85
2021/09/12 06:27:47;;;;;;;4.63;4.22;;;;;;;19.20;79.84;95843.28;5073794;28;20200;-86
2021/09/12 06:30:18;;;;;;;4.93;4.50;;;;;;;19.32;79.42;95842.28;5072790;28;20205;-87
2021/09/12 06:32:45;;;;;;;4.80;4.40;;;;;;;19.40;79.31;95843.78;5073124;28;20203;-88
2021/09/12 06:35:12;;;;;;;4.78;4.47;;;;;;;19.49;79.27;95839.00;5072983;28;20220;-86
2021/09/12 06:37:39;;;;;;;5.03;4.63;;;;;;;19.56;79.19;95834.53;5073861;28;20591;-86
2021/09/12 06:40:07;;;;;;;5.45;5.05;;;;;;;19.58;79.90;95838.50;5073378;28;20842;-86
2021/09/12 06:42:34;;;;;;;5.82;5.25;;;;;;;19.75;79.36;95836.00;5054040;28;20210;-86
2021/09/12 06:45:02;;;;;;;5.70;5.20;;;;;;;19.86;79.40;95842.25;5067995;28;20220;-86
2021/09/12 06:47:29;;;;;;;6.63;6.03;;;;;;;19.83;79.37;95840.06;5074346;28;20571;-87
2021/09/12 06:49:55;;;;;;;7.00;6.40;;;;;;;19.77;79.90;95841.00;5073610;28;20201;-86
2021/09/12 06:52:24;;;;;;;6.18;5.57;;;;;;;20.01;79.12;95843.34;5074892;28;20258;-87
2021/09/12 06:54:52;;;;;;;5.40;5.00;;;;;;;20.24;78.30;95847.78;5072893;28;20220;-85
2021/09/12 06:57:18;;;;;;;5.78;5.28;;;;;;;20.37;77.96;95852.00;5073496;28;20700;-84
2021/09/12 06:59:51;;;;;;;5.93;5.43;;;;;;;20.44;77.58;95846.63;5072296;28;20292;-87
2021/09/12 07:02:18;;;;;;;6.28;5.70;;;;;;;20.54;77.21;95844.22;5072478;28;20196;-85
2021/09/12 07:04:45;;;;;;;5.90;5.40;;;;;;;20.63;77.43;95845.44;5072499;28;20224;-86
2021/09/12 07:07:11;;;;;;;6.47;5.93;;;;;;;20.76;77.01;95847.00;5069941;28;20486;-87
2021/09/12 07:09:38;;;;;;;6.15;5.63;;;;;;;20.87;76.78;95843.53;5074211;28;20201;-86
2021/09/12 07:12:05;;;;;;;6.13;5.57;;;;;;;20.97;76.39;95844.47;5073129;28;20571;-85
2021/09/12 07:14:31;;;;;;;5.55;5.05;;;;;;;20.97;76.32;95848.94;5072563;28;20232;-86
2021/09/12 07:16:58;;;;;;;6.18;4.88;;;;;;;21.12;76.25;95851.03;5071570;28;20201;-86
2021/09/12 07:19:25;;;;;;;5.90;5.00;;;;;;;21.37;75.08;95852.25;5073067;28;20224;-85
2021/09/12 07:21:52;;;;;;;5.65;5.25;;;;;;;21.67;74.81;95843.31;5073155;28;20207;-84
2021/09/12 07:27:26;;;;;;;6.75;5.95;;;;;;;22.11;72.23;95851.31;5031475;28;20221;-84
2021/09/12 07:29:53;;;;;;;5.60;5.10;;;;;;;22.18;72.15;95857.94;5052743;28;20575;-82
2021/09/12 07:32:19;;;;;;;6.50;6.00;;;;;;;22.31;70.98;95848.94;5050328;28;20205;-82
2021/09/12 07:34:47;;;;;;;5.85;5.45;;;;;;;22.44;68.99;95853.81;5051555;28;20244;-80
2021/09/12 07:37:14;;;;;;;7.18;5.20;;;;;;;22.59;68.83;95854.00;5052339;28;20235;-81
2021/09/12 07:39:40;;;;;;;5.88;5.35;;;;;;;22.69;68.12;95855.97;5051980;28;20205;-82
2021/09/12 07:42:10;;;;;;;6.07;5.25;;;;;;;22.81;67.75;95855.84;5066995;28;20204;-87
2021/09/12 07:44:36;;;;;;;5.22;4.72;;;;;;;23.08;67.01;95852.22;5049352;28;20222;-83
2021/09/12 07:47:03;;;;;;;5.72;5.22;;;;;;;23.23;66.10;95848.91;5030537;28;20194;-84
2021/09/12 07:49:29;;;;;;;4.95;4.53;;;;;;;23.46;66.03;95844.38;5029709;28;20201;-84
2021/09/12 07:52:04;;;;;;;5.47;5.03;;;;;;;23.62;65.43;95843.47;5038318;28;20204;-84
2021/09/12 07:54:36;;;;;;;5.35;4.70;;;;;;;23.76;65.50;95839.38;5047928;28;20312;-85
2021/09/12 07:57:28;;;;;;;5.10;4.60;;;;;;;23.88;63.73;95841.78;5050941;28;20611;-85
2021/09/12 08:00:30;;;;;;;4.88;4.38;;;;;;;23.87;61.74;95846.25;4971485;28;20446;-84
2021/09/12 08:02:57;;;;;;;5.35;4.95;;;;;;;23.80;61.90;95847.53;5046693;28;20196;-85
2021/09/12 08:05:47;;;;;;;4.68;4.28;;;;;;;24.01;62.21;95849.25;5052879;28;20312;-84
2021/09/12 08:11:33;;;;;;;5.65;4.57;;;;;;;24.09;62.51;95854.03;5015090;28;20210;-85
2021/09/12 08:14:06;;;;;;;4.88;4.30;;;;;;;24.00;63.55;95853.72;5032446;28;20200;-84
2021/09/12 08:29:49;;;;;;;4.80;4.15;;;;;;;23.13;66.60;95866.41;4969889;28;20216;-84
2021/09/12 08:32:42;;;;;;;4.82;4.30;;;;;;;23.41;64.94;95864.31;5032453;28;20197;-84
2021/09/12 08:36:10;;;;;;;;;;;;;;;;;;;;;
2021/09/12 08:42:58;;;;;;;4.97;4.00;;;;;;;23.30;65.00;95861.84;4874298;29;20219;-85
2021/09/12 08:49:49;;;;;;;5.63;5.13;;;;;;;23.37;64.40;95855.34;4844291;29;20210;-85
2021/09/12 08:56:46;;;;;;;;;;;;;;;;;;;;;
2021/09/12 09:10:09;;;;;;;4.70;4.30;;;;;;;25.27;56.87;95861.34;4956016;28;20216;-83
2021/09/12 09:50:13;;;;;;;4.93;3.38;;;;;;;26.90;54.38;95833.56;5015127;28;20198;-85
2021/09/12 09:52:41;;;;;;;3.50;3.20;;;;;;;26.97;54.99;95826.16;5053785;28;20205;-85
2021/09/12 09:55:16;;;;;;;3.70;3.40;;;;;;;26.49;54.25;95825.84;5053445;28;20589;-84
2021/09/12 10:00:41;;;;;;;4.55;3.60;;;;;;;25.86;55.99;95827.31;5052668;28;20810;-83
2021/09/12 10:03:11;;;;;;;3.85;3.50;;;;;;;25.43;57.64;95826.00;5043403;28;20229;-86
2021/09/12 10:05:58;;;;;;;3.35;3.15;;;;;;;25.20;58.06;95827.34;5032803;28;20226;-84
2021/09/12 10:08:28;;;;;;;3.38;3.17;;;;;;;25.00;58.60;95824.69;5033590;28;20208;-85
2021/09/12 10:10:57;;;;;;;4.50;3.70;;;;;;;24.76;58.51;95829.59;5034232;28;20289;-85
2021/09/12 10:13:28;;;;;;;4.10;3.42;;;;;;;24.57;59.74;95824.03;5035955;28;20301;-84
2021/09/12 10:15:59;;;;;;;3.20;3.00;;;;;;;24.42;61.29;95811.59;5038424;28;20746;-85
2021/09/12 10:18:40;;;;;;;3.67;3.38;;;;;;;24.25;60.93;95818.88;5037256;28;20230;-84
2021/09/12 10:21:25;;;;;;;3.35;3.08;;;;;;;24.13;61.92;95812.22;5044266;28;20308;-87
2021/09/12 10:24:03;;;;;;;3.60;3.40;;;;;;;24.27;60.03;95816.78;5059037;28;20205;-83
2021/09/12 10:26:32;;;;;;;3.95;3.33;;;;;;;24.53;59.34;95815.03;5058568;28;20212;-85
2021/09/12 10:29:02;;;;;;;3.60;3.30;;;;;;;24.89;60.14;95809.88;5056822;28;20687;-85
2021/09/12 10:31:41;;;;;;;3.50;3.20;;;;;;;25.16;58.15;95801.78;5055472;28;20193;-85
2021/09/12 10:34:10;;;;;;;3.22;2.92;;;;;;;25.31;58.61;95801.78;5054810;28;20217;-85
2021/09/12 10:36:40;;;;;;;3.53;3.22;;;;;;;25.29;57.15;95801.25;5056270;28;20206;-85
2021/09/12 10:39:35;;;;;;;3.70;3.40;;;;;;;25.02;56.01;95798.84;5056975;28;20241;-84
2021/09/12 10:42:23;;;;;;;3.65;3.35;;;;;;;24.67;56.97;95797.69;5055500;28;20220;-85
2021/09/12 10:45:21;;;;;;;3.38;3.17;;;;;;;24.69;55.95;95797.44;5054749;28;20301;-85
2021/09/12 10:47:49;;;;;;;3.42;3.22;;;;;;;24.84;56.20;95799.31;5056116;28;20201;-85
2021/09/12 10:50:41;;;;;;;3.17;2.97;;;;;;;24.98;55.89;95789.91;5054441;28;20208;-86
2021/09/12 10:53:09;;;;;;;3.45;3.15;;;;;;;25.16;55.32;95786.75;5054642;28;20517;-84
2021/09/12 10:56:03;;;;;;;3.35;3.05;;;;;;;25.36;55.95;95786.75;5054501;28;20271;-85
2021/09/12 10:58:31;;;;;;;3.38;3.17;;;;;;;25.58;56.03;95783.03;5054667;28;20253;-85
2021/09/12 11:01:13;;;;;;;4.13;3.83;;;;;;;25.53;54.37;95775.13;5054773;28;20225;-84
2021/09/12 11:03:49;;;;;;;3.00;2.80;;;;;;;25.38;54.75;95776.72;5055611;28;20205;-87
2021/09/12 11:09:35;;;;;;;3.30;3.00;;;;;;;24.87;57.96;95791.69;5040481;28;20221;-85
2021/09/12 11:12:05;;;;;;;3.17;2.97;;;;;;;24.75;57.82;95791.94;5031768;28;20228;-85
2021/09/12 11:14:32;;;;;;;3.10;2.80;;;;;;;24.76;57.86;95790.09;5030802;28;20313;-85
2021/09/12 11:17:08;;;;;;;3.08;2.88;;;;;;;24.60;57.62;95797.19;5031521;28;20198;-84
2021/09/12 11:19:40;;;;;;;3.60;3.30;;;;;;;24.49;59.05;95789.50;5031368;28;20276;-85
2021/09/12 11:22:07;;;;;;;4.22;3.35;;;;;;;24.41;59.99;95786.31;5032963;28;20607;-85
2021/09/12 11:24:36;;;;;;;3.67;3.00;;;;;;;24.45;59.53;95782.09;5030748;28;20218;-84
2021/09/12 11:27:07;;;;;;;2.92;2.72;;;;;;;24.44;60.24;95785.78;5031934;28;20288;-85
2021/09/12 11:29:39;;;;;;;3.35;3.05;;;;;;;24.64;59.59;95777.16;5030961;28;20737;-85
2021/09/12 11:32:22;;;;;;;3.35;3.05;;;;;;;24.93;58.28;95768.78;5030871;28;20232;-85
2021/09/12 11:34:56;;;;;;;3.08;2.88;;;;;;;25.13;57.30;95774.09;5036187;28;20279;-85
2021/09/12 11:37:23;;;;;;;3.50;3.20;;;;;;;25.18;56.82;95765.41;5034699;28;20222;-85
2021/09/12 11:39:57;;;;;;;3.20;2.90;;;;;;;25.36;56.16;95763.03;5030490;28;20257;-85
2021/09/12 11:42:29;;;;;;;3.40;3.10;;;;;;;25.43;55.48;95755.63;5049802;28;20198;-85
2021/09/12 11:59:11;;;;;;;2.85;2.60;;;;;;;24.87;55.20;95740.84;4947201;28;20686;-85
2021/09/12 12:01:43;;;;;;;5.93;3.35;;;;;;;24.72;56.55;95741.63;5032186;28;20580;-85
2021/09/12 12:06:54;;;;;;;3.40;3.10;;;;;;;24.62;56.60;95736.34;5027857;28;20222;-85
2021/09/12 12:13:06;;;;;;;3.40;3.10;;;;;;;24.67;57.19;95737.13;4928160;29;20705;-85
2021/09/12 12:15:52;;;;;;;3.22;3.03;;;;;;;24.61;57.90;95738.19;4948759;28;20221;-85
2021/09/12 12:22:37;;;;;;;3.45;3.15;;;;;;;24.87;57.51;95735.56;4986289;28;20335;-85
2021/09/12 12:25:11;;;;;;;3.88;3.30;;;;;;;25.31;55.57;95717.41;4957370;28;20306;-84
2021/09/12 12:27:43;;;;;;;3.63;3.33;;;;;;;25.51;53.20;95719.22;4989716;28;20192;-86
2021/09/12 12:30:13;;;;;;;7.10;3.00;;;;;;;25.64;54.04;95716.06;5002142;28;20191;-83
2021/09/12 12:32:41;;;;;;;3.20;2.90;;;;;;;25.69;52.70;95710.78;5014616;28;20195;-83
2021/09/12 12:35:15;;;;;;;2.90;2.70;;;;;;;25.78;52.59;95709.97;5014338;28;20597;-85
2021/09/12 12:37:43;;;;;;;3.05;2.78;;;;;;;25.80;52.55;95710.47;4989189;28;20242;-82
2021/09/12 12:40:12;;;;;;;2.72;2.53;;;;;;;25.80;50.85;95709.66;4975942;28;20224;-84
2021/09/12 12:42:40;;;;;;;3.30;3.10;;;;;;;25.88;50.17;95708.34;4995738;28;20250;-83
2021/09/12 12:45:25;;;;;;;3.10;2.70;;;;;;;25.88;49.70;95705.69;4999021;28;20219;-84
2021/09/12 12:47:54;;;;;;;2.80;2.60;;;;;;;25.89;49.56;95699.34;4999497;28;20391;-84
2021/09/12 12:50:31;;;;;;;3.33;3.03;;;;;;;25.74;51.20;95706.28;4999228;28;20204;-83
2021/09/12 12:53:09;;;;;;;3.25;2.90;;;;;;;25.30;49.72;95695.53;4998918;28;20254;-84
2021/09/12 12:55:36;;;;;;;3.80;2.78;;;;;;;25.37;50.28;95690.78;4998056;28;20645;-83
2021/09/12 12:58:04;;;;;;;2.83;2.60;;;;;;;25.65;50.40;95692.06;4999122;28;20204;-82
2021/09/12 13:00:32;;;;;;;3.03;2.55;;;;;;;25.88;50.94;95682.75;4998099;28;20223;-84
2021/09/12 13:02:59;;;;;;;2.90;2.70;;;;;;;26.03;50.92;95680.03;4989066;28;20196;-85
2021/09/12 13:05:27;;;;;;;2.70;2.50;;;;;;;26.15;50.00;95683.16;4979391;28;20310;-84
2021/09/12 13:07:55;;;;;;;3.00;2.80;;;;;;;26.34;50.43;95679.91;4979740;28;20667;-84
2021/09/12 13:10:21;;;;;;;2.40;2.30;;;;;;;26.42;48.52;95671.41;4978862;28;20235;-82
2021/09/12 13:12:48;;;;;;;2.70;2.50;;;;;;;26.35;49.86;95673.56;4979920;28;20666;-85
2021/09/12 13:15:14;;;;;;;6.07;2.90;;;;;;;26.11;50.16;95679.47;4978581;28;20348;-85
2021/09/12 13:17:42;;;;;;;2.42;2.25;;;;;;;25.91;50.62;95674.28;4980017;28;20583;-83
2021/09/12 13:20:10;;;;;;;3.38;2.78;;;;;;;25.64;51.62;95674.66;4979493;28;20239;-83
2021/09/12 13:22:36;;;;;;;3.25;2.70;;;;;;;25.46;51.81;95670.72;4979083;28;20204;-84
2021/09/12 13:25:04;;;;;;;3.65;2.80;;;;;;;25.23;52.48;95667.88;4987395;28;20223;-83
2021/09/12 13:27:30;;;;;;;3.17;2.97;;;;;;;25.18;52.81;95666.03;4997585;28;20192;-84
2021/09/12 13:29:59;;;;;;;3.17;2.80;;;;;;;25.04;52.68;95660.50;4997825;28;20563;-84
2021/09/12 13:32:29;;;;;;;2.90;2.70;;;;;;;24.98;52.26;95658.16;4998094;28;20299;-83
2021/09/12 13:34:56;;;;;;;3.25;2.25;;;;;;;24.88;52.98;95658.91;4997747;28;20231;-84
2021/09/12 13:37:23;;;;;;;2.85;2.65;;;;;;;24.86;53.09;95661.03;4997155;28;20258;-81
2021/09/12 13:39:49;;;;;;;2.85;2.53;;;;;;;24.77;53.49;95655.50;4998181;28;20227;-83